Terminal Aerodrome Forecast
Issued by NWS

Home | Current Version | Previous Version | Text Only | Print | Product List | Glossary On
Versions: 1 2 3 4 5 6 7 8 9 10 11 12 13 14 15 16 17 18 19 20 21 22 23 24 25 26
000
FTUS45 KBOU 252329
TAFAPA
TAF
KAPA 252329Z 2600/2624 15010KT P6SM FEW140 BKN220
     FM260200 18008KT P6SM VCSH SCT050 OVC100
     FM260900 28007KT P6SM VCSH SCT035 OVC050
      TEMPO 2611/2614 3SM -SHSNRA OVC025
     FM261400 36009KT P6SM VCSH BKN020 OVC030
      TEMPO 2614/2618 -SHSNRA BKN012 OVC020
     FM262100 01007KT P6SM SCT040 BKN060=

USA.gov is the U.S. government's official web portal to all federal, state and local government web resources and services.